Time;durP1;ratioP1;P1;durP2;ratioP2;P2;SDS_P1;SDS_P2;PMS_P1;PMS_P2;Temp;Humidity;BMP_temperature;BMP_pressure;BME280_temperature;BME280_humidity;BME280_pressure;Samples;Min_cycle;Max_cycle;Signal;HPM_P1;HPM_P2
2022/07/19 00:01:23;;;;;;;5.07;3.40;;;14.50;99.90;;;;;;8304224;28;20038;-86
2022/07/19 00:05:39;;;;;;;4.57;3.58;;;14.40;99.90;;;;;;8303878;28;20022;-86
2022/07/19 00:09:40;;;;;;;5.60;3.40;;;14.30;99.90;;;;;;8302166;28;20583;-85
2022/07/19 00:13:41;;;;;;;3.60;3.30;;;13.90;99.90;;;;;;8300344;28;20041;-85
2022/07/19 00:17:44;;;;;;;7.20;3.78;;;13.80;99.90;;;;;;8299779;28;20033;-86
2022/07/19 00:21:44;;;;;;;5.85;4.07;;;13.70;99.90;;;;;;8296163;28;20030;-86
2022/07/19 00:25:45;;;;;;;5.47;4.25;;;13.70;99.90;;;;;;8300220;28;20545;-86
2022/07/19 00:29:46;;;;;;;4.47;3.60;;;13.90;99.90;;;;;;8297432;28;20041;-85
2022/07/19 00:33:46;;;;;;;4.10;3.40;;;14.00;99.90;;;;;;8298824;28;20030;-85
2022/07/19 00:37:47;;;;;;;4.65;3.42;;;13.90;99.90;;;;;;8299386;28;20549;-85
2022/07/19 00:41:48;;;;;;;4.75;3.40;;;13.90;99.90;;;;;;8297959;28;20056;-84
2022/07/19 00:45:49;;;;;;;5.60;3.47;;;13.70;99.90;;;;;;8298642;28;20475;-85
2022/07/19 00:49:52;;;;;;;3.63;3.05;;;13.60;99.90;;;;;;8295779;28;20022;-84
2022/07/19 00:53:55;;;;;;;5.97;3.50;;;13.50;99.90;;;;;;8298881;28;20022;-84
2022/07/19 00:57:57;;;;;;;4.90;3.63;;;13.40;99.90;;;;;;8297925;28;20030;-85
2022/07/19 01:02:01;;;;;;;4.65;3.92;;;13.40;99.90;;;;;;8295545;28;20030;-84
2022/07/19 01:06:02;;;;;;;7.63;4.07;;;13.30;99.90;;;;;;8296969;28;20555;-84
2022/07/19 01:10:04;;;;;;;6.22;3.75;;;13.30;99.90;;;;;;8297884;28;20046;-84
2022/07/19 01:14:04;;;;;;;4.10;3.65;;;13.30;99.90;;;;;;8292830;28;20052;-84
2022/07/19 01:18:05;;;;;;;6.32;4.45;;;13.10;99.90;;;;;;8294468;28;20117;-84
2022/07/19 01:22:06;;;;;;;5.05;4.00;;;13.00;99.90;;;;;;8297823;28;20470;-85
2022/07/19 01:26:06;;;;;;;6.43;3.67;;;13.30;99.90;;;;;;8297893;28;20026;-84
2022/07/19 01:30:19;;;;;;;4.25;3.85;;;13.40;99.90;;;;;;8297527;28;20104;-84
2022/07/19 01:34:20;;;;;;;6.72;4.13;;;13.20;99.90;;;;;;8298420;28;20357;-84
2022/07/19 01:38:21;;;;;;;5.97;4.53;;;13.00;99.90;;;;;;8297414;28;20014;-84
2022/07/19 01:42:23;;;;;;;5.55;4.28;;;12.90;99.90;;;;;;8297533;28;20049;-84
2022/07/19 01:46:24;;;;;;;6.00;3.92;;;12.80;99.90;;;;;;8297671;28;20034;-84
2022/07/19 01:50:25;;;;;;;5.53;3.80;;;13.10;99.90;;;;;;8297291;28;20018;-85
2022/07/19 01:54:48;;;;;;;5.03;4.00;;;13.10;99.90;;;;;;8291047;28;20026;-86
2022/07/19 01:59:13;;;;;;;7.55;4.32;;;12.90;99.90;;;;;;8296120;28;20026;-86
2022/07/19 02:03:29;;;;;;;4.15;3.75;;;12.60;99.90;;;;;;8291876;28;20060;-86
2022/07/19 02:08:11;;;;;;;4.60;4.03;;;12.60;99.90;;;;;;8295861;28;20014;-86
2022/07/19 02:12:33;;;;;;;5.05;3.90;;;12.50;99.90;;;;;;8289956;28;20030;-85
2022/07/19 02:16:59;;;;;;;4.38;3.97;;;12.40;99.90;;;;;;8296835;28;20109;-85
2022/07/19 02:21:12;;;;;;;4.60;4.13;;;12.20;99.90;;;;;;8288446;28;20038;-85
2022/07/19 02:25:27;;;;;;;5.20;4.28;;;12.30;99.90;;;;;;8286164;28;20026;-85
2022/07/19 02:29:40;;;;;;;5.07;4.05;;;12.50;99.90;;;;;;8297366;28;20030;-85
2022/07/19 02:34:03;;;;;;;8.00;4.50;;;12.70;99.90;;;;;;8298252;28;20022;-85
2022/07/19 02:38:16;;;;;;;5.43;3.95;;;12.40;99.90;;;;;;8245640;28;20050;-85
2022/07/19 02:42:19;;;;;;;5.82;4.15;;;12.10;99.90;;;;;;8294913;28;20392;-86
2022/07/19 02:46:48;;;;;;;4.80;3.92;;;11.90;99.90;;;;;;8295385;28;20018;-85
2022/07/19 02:55:12;;;;;;;8.93;4.60;;;12.00;99.90;;;;;;8223742;28;20030;-85
2022/07/19 03:04:19;;;;;;;6.82;4.60;;;11.90;99.90;;;;;;8288963;28;20076;-85
2022/07/19 03:08:29;;;;;;;5.43;4.70;;;11.90;99.90;;;;;;8293109;28;20024;-85
2022/07/19 03:12:42;;;;;;;5.53;4.70;;;11.70;99.90;;;;;;8293927;28;20053;-86
2022/07/19 03:16:42;;;;;;;5.45;4.70;;;11.50;99.90;;;;;;8301039;28;20036;-86
2022/07/19 03:21:14;;;;;;;7.60;5.00;;;11.70;99.90;;;;;;8291133;28;20488;-85
2022/07/19 03:25:52;;;;;;;5.82;4.40;;;11.80;99.90;;;;;;8291217;28;20049;-86
2022/07/19 03:30:19;;;;;;;6.20;4.00;;;11.60;99.90;;;;;;8283750;28;20034;-85
2022/07/19 03:34:32;;;;;;;6.25;4.53;;;11.40;99.90;;;;;;8296006;28;20029;-86
2022/07/19 03:38:58;;;;;;;6.18;4.38;;;11.20;99.90;;;;;;8294815;28;20041;-85
2022/07/19 03:42:58;;;;;;;6.05;5.10;;;11.00;99.90;;;;;;8299426;28;20045;-85
2022/07/19 03:46:59;;;;;;;6.22;4.82;;;11.10;99.90;;;;;;8300392;28;20026;-86
2022/07/19 03:51:03;;;;;;;9.60;5.30;;;11.00;99.90;;;;;;8300054;28;20071;-85
2022/07/19 03:55:16;;;;;;;8.80;4.60;;;10.90;99.90;;;;;;8294041;28;20030;-86
2022/07/19 03:59:51;;;;;;;10.32;5.43;;;10.90;99.90;;;;;;8299926;28;20018;-85
2022/07/19 04:03:58;;;;;;;6.22;5.07;;;11.00;99.90;;;;;;8296240;28;20038;-85
2022/07/19 04:08:02;;;;;;;5.28;4.55;;;11.70;99.90;;;;;;8300474;28;20029;-85
2022/07/19 04:12:03;;;;;;;5.43;3.88;;;12.20;99.90;;;;;;8298595;28;20510;-86
2022/07/19 04:16:16;;;;;;;6.47;4.22;;;12.80;99.90;;;;;;8294328;28;20025;-86
2022/07/19 04:20:17;;;;;;;5.35;4.28;;;13.20;99.90;;;;;;8298948;28;20018;-86
2022/07/19 04:24:24;;;;;;;5.75;4.20;;;13.90;99.90;;;;;;8297119;28;20029;-86
2022/07/19 04:28:37;;;;;;;6.57;3.80;;;14.60;99.90;;;;;;8292808;28;20025;-86
2022/07/19 04:33:13;;;;;;;4.65;4.03;;;15.00;99.90;;;;;;8299407;28;20029;-86
2022/07/19 04:37:43;;;;;;;6.15;3.83;;;15.60;99.90;;;;;;8287784;28;20509;-86
2022/07/19 04:42:02;;;;;;;4.90;4.10;;;16.20;99.90;;;;;;8237899;28;20046;-85
2022/07/19 04:46:49;;;;;;;5.30;4.22;;;15.90;99.90;;;;;;8225702;28;20022;-86
2022/07/19 04:55:21;;;;;;;4.57;4.15;;;15.40;99.90;;;;;;8255985;28;20093;-86
2022/07/19 04:59:25;;;;;;;5.78;4.63;;;16.00;99.90;;;;;;8253953;28;20424;-86
2022/07/19 05:03:35;;;;;;;5.40;4.60;;;16.60;99.90;;;;;;8291795;28;20626;-86
2022/07/19 05:07:41;;;;;;;5.03;4.33;;;17.40;99.90;;;;;;8300965;28;20037;-86
2022/07/19 05:12:17;;;;;;;;;;;;;;;;;;;;;
2022/07/19 05:16:57;;;;;;;8.48;4.40;;;18.70;99.90;;;;;;8247073;28;20046;-86
2022/07/19 05:21:20;;;;;;;4.72;4.22;;;20.20;99.90;;;;;;8182010;28;20035;-86
2022/07/19 05:30:25;;;;;;;7.10;4.30;;;21.30;99.90;;;;;;8190329;29;20127;-86
2022/07/19 05:34:53;;;;;;;5.82;4.50;;;21.30;99.90;;;;;;8167593;29;20046;-86
2022/07/19 05:58:46;;;;;;;6.63;4.93;;;23.40;99.90;;;;;;8218931;28;20123;-86
2022/07/19 06:03:08;;;;;;;9.13;4.90;;;24.10;99.90;;;;;;8211601;28;20386;-87
2022/07/19 06:07:14;;;;;;;4.78;4.38;;;24.20;99.90;;;;;;8275988;28;20531;-87
2022/07/19 06:11:18;;;;;;;5.45;3.85;;;24.50;99.90;;;;;;8303024;28;20027;-87
2022/07/19 06:16:07;;;;;;;4.45;3.90;;;24.80;99.90;;;;;;8304257;28;20026;-87
2022/07/19 06:25:45;;;;;;;7.53;3.72;;;26.30;95.40;;;;;;8181295;28;20031;-87
2022/07/19 06:30:20;;;;;;;5.72;3.70;;;26.40;96.00;;;;;;8177939;29;20035;-87
2022/07/19 06:34:59;;;;;;;3.90;3.60;;;26.40;95.50;;;;;;8183434;29;20075;-87
2022/07/19 06:39:18;;;;;;;4.00;3.50;;;26.70;96.50;;;;;;8184215;29;20035;-87
2022/07/19 06:48:42;;;;;;;4.22;2.70;;;27.40;95.60;;;;;;8300074;28;20080;-88
2022/07/19 06:52:43;;;;;;;3.30;2.50;;;28.70;88.10;;;;;;8283358;28;20376;-88
2022/07/19 06:57:22;;;;;;;3.83;2.42;;;28.60;85.90;;;;;;8290236;28;20029;-87
2022/07/19 07:06:34;;;;;;;4.03;2.38;;;28.90;81.50;;;;;;8186924;29;20110;-87
2022/07/19 07:10:39;;;;;;;3.03;2.00;;;28.70;80.30;;;;;;8161292;29;20504;-87
2022/07/19 07:14:52;;;;;;;3.15;2.38;;;29.20;81.10;;;;;;8198509;28;20092;-87
2022/07/19 07:19:03;;;;;;;2.90;2.65;;;29.10;76.70;;;;;;8298220;28;20022;-87
2022/07/19 07:23:07;;;;;;;4.82;2.17;;;29.40;84.20;;;;;;8306673;28;20479;-87
2022/07/19 07:27:45;;;;;;;2.17;1.98;;;29.60;75.70;;;;;;8299451;28;20038;-87
2022/07/19 07:31:50;;;;;;;4.25;1.77;;;30.10;71.10;;;;;;8301628;28;20113;-87
2022/07/19 07:36:13;;;;;;;4.47;1.95;;;29.50;64.50;;;;;;8303181;28;20026;-87
2022/07/19 07:40:35;;;;;;;5.65;2.03;;;29.10;66.80;;;;;;8293682;28;20031;-86
2022/07/19 07:45:14;;;;;;;2.28;1.63;;;29.20;69.70;;;;;;8298256;28;20030;-86
2022/07/19 08:00:22;;;;;;;5.00;1.80;;;29.90;62.10;;;;;;8129952;29;19911;-87
2022/07/19 08:05:02;;;;;;;;;;;;;;;;;;;;;
2022/07/19 08:09:37;;;;;;;5.13;2.08;;;30.50;64.20;;;;;;8158227;29;20034;-86
2022/07/19 08:13:50;;;;;;;5.68;1.85;;;30.00;62.90;;;;;;8152853;29;20039;-86
2022/07/19 08:23:07;;;;;;;2.53;1.77;;;29.80;65.00;;;;;;8148899;28;20092;-86
2022/07/19 08:41:47;;;;;;;2.30;1.77;;;30.90;58.60;;;;;;8327019;22;20064;-80
2022/07/19 08:45:48;;;;;;;2.78;1.77;;;31.00;59.30;;;;;;8316619;28;20028;-79
2022/07/19 08:49:49;;;;;;;5.30;2.00;;;31.10;59.60;;;;;;8348274;28;20044;-80
2022/07/19 08:53:50;;;;;;;2.38;1.75;;;30.90;58.00;;;;;;8355003;28;20029;-81
2022/07/19 08:57:57;;;;;;;2.35;1.90;;;30.90;58.70;;;;;;8349131;28;20025;-81
2022/07/19 09:01:57;;;;;;;3.85;2.00;;;31.30;55.20;;;;;;8352700;28;20515;-81
2022/07/19 09:06:04;;;;;;;2.40;2.20;;;31.50;56.00;;;;;;8336919;28;20025;-81
2022/07/19 09:10:20;;;;;;;3.40;2.10;;;31.60;55.10;;;;;;8342413;28;20025;-81
2022/07/19 09:14:24;;;;;;;3.88;2.67;;;31.80;57.00;;;;;;8349704;28;20025;-80
2022/07/19 09:18:29;;;;;;;3.15;2.40;;;31.30;54.10;;;;;;8348680;28;20116;-81
2022/07/19 09:22:30;;;;;;;4.63;2.33;;;31.40;56.00;;;;;;8344407;28;20061;-81
2022/07/19 09:26:31;;;;;;;2.42;2.22;;;31.90;57.10;;;;;;8330152;28;20013;-80
2022/07/19 09:30:41;;;;;;;2.35;2.15;;;31.70;54.40;;;;;;8332871;28;20021;-79
2022/07/19 09:34:48;;;;;;;5.82;2.75;;;32.00;54.80;;;;;;8334515;28;20026;-80
2022/07/19 09:38:51;;;;;;;2.97;2.67;;;31.90;52.90;;;;;;8321538;28;20451;-79
2022/07/19 09:42:53;;;;;;;3.10;2.50;;;31.80;53.20;;;;;;8332857;28;20017;-80
2022/07/19 09:46:53;;;;;;;4.10;2.60;;;31.70;52.60;;;;;;8331998;28;20021;-80
2022/07/19 09:50:54;;;;;;;3.17;2.40;;;32.20;51.70;;;;;;8330161;28;20029;-81
2022/07/19 09:54:55;;;;;;;3.97;2.40;;;32.40;55.10;;;;;;8327024;28;20064;-80
2022/07/19 09:58:58;;;;;;;3.55;2.20;;;32.80;53.40;;;;;;8323896;28;20036;-80
2022/07/19 10:03:00;;;;;;;3.42;2.03;;;32.30;53.20;;;;;;8331002;28;20030;-80
2022/07/19 10:07:02;;;;;;;3.10;2.33;;;32.30;53.30;;;;;;8322405;28;20116;-82
2022/07/19 10:11:02;;;;;;;4.05;2.20;;;32.70;50.70;;;;;;8320478;28;20025;-80
2022/07/19 10:15:04;;;;;;;4.20;1.95;;;33.10;53.00;;;;;;8328518;28;20083;-80
2022/07/19 10:19:16;;;;;;;3.60;2.10;;;32.80;53.90;;;;;;8316495;28;20128;-80
2022/07/19 10:23:26;;;;;;;3.70;2.20;;;32.90;55.00;;;;;;8327101;28;20052;-81
2022/07/19 10:27:27;;;;;;;4.70;2.10;;;33.20;50.90;;;;;;8329743;28;20018;-80
2022/07/19 10:31:35;;;;;;;3.42;2.38;;;33.90;50.20;;;;;;8331271;28;20397;-80
2022/07/19 10:35:37;;;;;;;2.80;2.13;;;33.40;48.30;;;;;;8326569;28;20469;-80
2022/07/19 10:39:39;;;;;;;3.17;2.20;;;33.30;45.50;;;;;;8324332;28;20037;-80
2022/07/19 10:44:09;;;;;;;2.60;2.22;;;33.20;48.80;;;;;;8323014;28;20056;-80
2022/07/19 10:48:12;;;;;;;2.75;2.25;;;33.90;47.00;;;;;;8331620;28;20021;-78
2022/07/19 10:52:28;;;;;;;3.25;2.30;;;34.30;47.70;;;;;;8331177;28;20098;-80
2022/07/19 11:00:40;;;;;;;5.00;2.25;;;34.90;44.90;;;;;;8257293;28;20049;-81
2022/07/19 11:04:42;;;;;;;3.47;2.38;;;35.40;42.70;;;;;;8268725;28;20034;-80
2022/07/19 11:08:43;;;;;;;2.80;2.53;;;35.80;44.50;;;;;;8261952;28;20674;-80
2022/07/19 11:12:45;;;;;;;5.85;2.63;;;36.20;42.40;;;;;;8258358;28;20034;-80
2022/07/19 11:16:45;;;;;;;5.63;2.72;;;35.90;43.40;;;;;;8257676;28;20027;-79
2022/07/19 11:20:46;;;;;;;3.00;2.63;;;35.20;43.50;;;;;;8259670;28;20113;-81
2022/07/19 11:24:46;;;;;;;5.22;2.67;;;35.80;43.50;;;;;;8269210;28;20026;-80
2022/07/19 11:28:47;;;;;;;3.80;2.70;;;36.70;40.60;;;;;;8259904;28;20054;-77
2022/07/19 11:32:54;;;;;;;3.53;2.67;;;36.60;41.20;;;;;;8253531;28;20035;-79
2022/07/19 11:36:58;;;;;;;3.78;2.60;;;36.90;40.00;;;;;;8251845;28;20034;-81
2022/07/19 11:40:59;;;;;;;4.18;2.60;;;37.00;40.30;;;;;;8272275;28;20493;-80
2022/07/19 11:45:17;;;;;;;7.75;2.95;;;37.40;39.10;;;;;;8274044;28;20033;-80
2022/07/19 11:49:17;;;;;;;4.32;2.67;;;37.00;40.20;;;;;;8259553;28;20028;-80
2022/07/19 11:53:21;;;;;;;6.18;2.80;;;36.50;39.10;;;;;;8251979;28;20088;-79
2022/07/19 11:57:23;;;;;;;7.57;3.15;;;36.90;38.60;;;;;;8261515;28;20085;-79
2022/07/19 12:01:29;;;;;;;7.10;2.95;;;36.40;37.90;;;;;;8275044;28;20463;-79
2022/07/19 12:05:32;;;;;;;6.90;2.92;;;37.30;38.20;;;;;;8282444;28;20030;-80
2022/07/19 12:09:34;;;;;;;4.95;2.75;;;37.80;38.90;;;;;;8286025;28;20080;-79
2022/07/19 12:13:35;;;;;;;3.95;2.65;;;37.20;39.10;;;;;;8257453;28;20049;-80
2022/07/19 12:17:36;;;;;;;6.72;2.97;;;37.70;35.20;;;;;;8260658;28;20534;-80
2022/07/19 12:21:40;;;;;;;4.10;2.85;;;38.40;33.20;;;;;;8266327;28;20158;-80
2022/07/19 12:25:41;;;;;;;4.22;2.60;;;39.10;34.20;;;;;;8267739;28;20027;-79
2022/07/19 12:29:47;;;;;;;6.10;2.65;;;39.70;33.50;;;;;;8278892;28;20490;-81
2022/07/19 12:34:00;;;;;;;7.75;2.50;;;39.90;33.00;;;;;;8252859;28;20089;-77
2022/07/19 12:38:04;;;;;;;5.07;3.17;;;38.70;33.40;;;;;;8265012;28;20030;-81
2022/07/19 12:42:06;;;;;;;6.45;2.85;;;38.20;34.90;;;;;;8271823;28;20026;-78
2022/07/19 12:46:06;;;;;;;7.63;3.05;;;39.80;31.90;;;;;;8273902;28;20094;-78
2022/07/19 12:50:09;;;;;;;4.13;2.90;;;40.10;32.10;;;;;;8265641;28;20165;-79
2022/07/19 12:54:11;;;;;;;4.93;2.92;;;41.90;30.30;;;;;;8261923;28;20015;-80
2022/07/19 12:58:14;;;;;;;3.78;2.80;;;41.30;29.40;;;;;;8274643;28;20038;-79
2022/07/19 13:02:16;;;;;;;3.35;2.85;;;41.30;29.70;;;;;;8272546;28;20697;-80
2022/07/19 13:06:16;;;;;;;5.78;2.60;;;41.20;30.30;;;;;;8274728;28;20018;-81
2022/07/19 13:10:17;;;;;;;5.85;2.95;;;42.20;28.50;;;;;;8248348;28;20082;-80
2022/07/19 13:14:18;;;;;;;6.88;3.08;;;42.10;29.30;;;;;;8263199;28;20023;-80
2022/07/19 13:18:19;;;;;;;4.88;2.95;;;42.40;28.70;;;;;;8273473;28;20026;-81
2022/07/19 13:22:19;;;;;;;4.60;3.03;;;43.20;27.70;;;;;;8274696;28;20061;-80
2022/07/19 13:26:20;;;;;;;4.72;2.85;;;43.20;28.80;;;;;;8261072;28;20029;-80
2022/07/19 13:30:21;;;;;;;4.15;2.80;;;43.50;28.20;;;;;;8279332;28;20554;-81
2022/07/19 13:34:23;;;;;;;4.55;2.97;;;44.00;27.10;;;;;;8256943;28;20042;-80
2022/07/19 13:38:23;;;;;;;7.55;3.00;;;41.50;29.10;;;;;;8249423;28;20138;-78
2022/07/19 13:42:24;;;;;;;3.63;2.60;;;41.30;29.30;;;;;;8250243;28;20038;-81
2022/07/19 13:46:25;;;;;;;5.05;2.50;;;42.50;28.00;;;;;;8253490;28;20073;-80
2022/07/19 13:50:26;;;;;;;4.47;2.80;;;43.30;28.10;;;;;;8257095;28;20041;-80
2022/07/19 13:54:26;;;;;;;5.18;2.90;;;44.40;26.30;;;;;;8265364;28;20017;-80
2022/07/19 13:58:27;;;;;;;6.45;2.80;;;44.80;27.10;;;;;;8251334;28;20032;-80
2022/07/19 14:02:28;;;;;;;5.18;2.40;;;41.80;30.00;;;;;;8282691;28;20065;-81
2022/07/19 14:06:28;;;;;;;5.22;2.90;;;41.80;29.20;;;;;;8260227;28;20037;-81
2022/07/19 14:10:29;;;;;;;8.63;3.03;;;43.30;26.70;;;;;;8268717;28;20018;-80
2022/07/19 14:14:29;;;;;;;4.53;2.60;;;44.20;28.00;;;;;;8259861;28;20109;-80
2022/07/19 14:18:30;;;;;;;3.15;2.55;;;45.80;26.20;;;;;;8279208;28;20022;-80
2022/07/19 14:22:31;;;;;;;4.97;2.80;;;46.10;24.90;;;;;;8252336;28;20625;-80
2022/07/19 14:26:32;;;;;;;5.55;3.10;;;43.00;28.50;;;;;;8256902;28;20023;-79
2022/07/19 14:30:33;;;;;;;7.53;3.00;;;41.60;28.50;;;;;;8275212;28;20029;-80
2022/07/19 14:34:34;;;;;;;6.13;3.08;;;40.00;29.00;;;;;;8273674;28;20472;-80
2022/07/19 14:38:34;;;;;;;6.32;3.08;;;40.60;28.20;;;;;;8253064;28;20033;-79
2022/07/19 14:42:35;;;;;;;4.50;2.58;;;42.60;27.90;;;;;;8254237;28;20498;-81
2022/07/19 14:46:36;;;;;;;3.80;2.65;;;42.60;26.30;;;;;;8256349;28;20026;-81
2022/07/19 14:50:36;;;;;;;4.70;3.05;;;43.50;26.40;;;;;;8262218;28;20057;-79
2022/07/19 14:54:37;;;;;;;6.35;3.40;;;43.80;26.40;;;;;;8271799;28;20038;-80
2022/07/19 14:58:37;;;;;;;5.75;2.90;;;44.60;26.20;;;;;;8254853;28;20054;-79
2022/07/19 15:02:39;;;;;;;5.50;3.63;;;45.90;26.00;;;;;;8243269;28;20030;-81
2022/07/19 15:06:40;;;;;;;9.10;3.08;;;46.00;24.30;;;;;;8280665;28;20046;-80
2022/07/19 15:10:41;;;;;;;4.03;3.28;;;45.40;26.40;;;;;;8282117;28;20080;-78
2022/07/19 15:14:42;;;;;;;5.15;3.33;;;45.00;27.00;;;;;;8247791;28;20110;-80
2022/07/19 15:18:42;;;;;;;6.10;2.90;;;45.60;26.50;;;;;;8269115;28;20040;-80
2022/07/19 15:22:43;;;;;;;7.50;3.38;;;45.60;25.70;;;;;;8264242;28;20026;-79
2022/07/19 15:26:44;;;;;;;4.47;3.40;;;43.70;27.10;;;;;;8261142;28;20069;-80
2022/07/19 15:30:45;;;;;;;4.63;3.72;;;43.20;27.90;;;;;;8277830;28;20022;-81
2022/07/19 15:34:45;;;;;;;8.98;3.58;;;43.50;27.40;;;;;;8264323;28;20023;-79
2022/07/19 15:38:46;;;;;;;3.80;3.40;;;44.10;27.50;;;;;;8266930;28;20027;-80
2022/07/19 15:42:48;;;;;;;7.00;3.65;;;43.70;27.10;;;;;;8281003;28;20041;-78
2022/07/19 15:46:49;;;;;;;5.80;3.58;;;41.60;29.20;;;;;;8285862;28;20065;-81
2022/07/19 15:50:50;;;;;;;9.07;3.72;;;38.90;31.50;;;;;;8248176;28;20430;-80
2022/07/19 15:54:50;;;;;;;9.43;3.80;;;36.30;32.90;;;;;;8256549;28;20030;-81
2022/07/19 15:58:51;;;;;;;5.97;3.53;;;35.30;37.30;;;;;;8253635;28;20035;-80
2022/07/19 16:02:52;;;;;;;6.75;3.50;;;34.80;37.00;;;;;;8270103;28;20041;-80
2022/07/19 16:06:52;;;;;;;7.20;4.15;;;34.40;37.70;;;;;;8253168;28;20054;-80
2022/07/19 16:10:53;;;;;;;9.20;4.05;;;34.00;36.90;;;;;;8281744;28;20524;-80
2022/07/19 16:14:54;;;;;;;7.57;3.67;;;33.70;36.80;;;;;;8258999;28;20022;-79
2022/07/19 16:18:56;;;;;;;7.03;3.92;;;33.50;37.60;;;;;;8262858;28;20038;-79
2022/07/19 16:22:56;;;;;;;10.02;4.05;;;33.50;38.60;;;;;;8266043;28;20517;-79
2022/07/19 16:26:57;;;;;;;8.70;3.90;;;33.20;38.60;;;;;;8272954;28;20026;-80
2022/07/19 16:30:57;;;;;;;5.90;3.97;;;33.20;39.10;;;;;;8271179;28;20505;-79
2022/07/19 16:34:58;;;;;;;7.05;4.20;;;33.80;38.40;;;;;;8254251;28;20023;-81
2022/07/19 16:38:58;;;;;;;7.78;3.63;;;35.20;37.00;;;;;;8283864;28;20049;-80
2022/07/19 16:42:59;;;;;;;10.98;4.38;;;35.50;35.90;;;;;;8263457;28;20415;-80
2022/07/19 16:46:59;;;;;;;5.75;3.80;;;35.90;35.00;;;;;;8272020;28;20104;-80
2022/07/19 16:51:00;;;;;;;6.13;3.70;;;35.70;35.80;;;;;;8269315;28;20022;-80
2022/07/19 16:55:00;;;;;;;8.40;4.13;;;35.00;36.40;;;;;;8252628;28;20026;-79
2022/07/19 16:59:01;;;;;;;6.45;4.10;;;34.00;37.40;;;;;;8271367;28;20040;-80
2022/07/19 17:03:02;;;;;;;6.38;3.60;;;33.50;38.20;;;;;;8276501;28;20030;-78
2022/07/19 17:07:02;;;;;;;8.32;4.18;;;33.10;38.80;;;;;;8265406;28;20023;-79
2022/07/19 17:11:03;;;;;;;6.05;3.95;;;32.50;40.20;;;;;;8263336;28;20015;-80
2022/07/19 17:15:04;;;;;;;8.00;4.57;;;32.00;40.60;;;;;;8254721;28;20030;-79
2022/07/19 17:19:05;;;;;;;4.90;4.15;;;31.70;41.10;;;;;;8255178;28;20054;-80
2022/07/19 17:23:06;;;;;;;8.73;4.28;;;31.40;42.60;;;;;;8263598;28;20118;-79
2022/07/19 17:27:06;;;;;;;11.55;4.82;;;31.20;44.50;;;;;;8280636;28;20643;-80
2022/07/19 17:31:07;;;;;;;8.90;4.47;;;31.00;44.40;;;;;;8272792;28;20025;-78
2022/07/19 17:35:08;;;;;;;8.32;5.00;;;30.80;44.20;;;;;;8249382;28;20038;-80
2022/07/19 17:39:10;;;;;;;10.07;4.50;;;30.60;44.60;;;;;;8262283;28;20037;-80
2022/07/19 17:43:10;;;;;;;6.15;4.55;;;30.50;44.50;;;;;;8273481;28;20022;-80
2022/07/19 17:47:11;;;;;;;12.98;4.50;;;30.30;45.70;;;;;;8263188;28;20022;-79
2022/07/19 17:51:12;;;;;;;7.68;5.03;;;30.20;46.00;;;;;;8264912;28;20039;-81
2022/07/19 17:55:13;;;;;;;7.15;5.15;;;30.10;46.30;;;;;;8294055;23;20114;-81
2022/07/19 17:59:15;;;;;;;6.72;4.93;;;29.90;48.00;;;;;;8293012;28;20057;-81
2022/07/19 18:03:16;;;;;;;10.70;4.90;;;29.70;47.10;;;;;;8281628;28;20033;-80
2022/07/19 18:07:16;;;;;;;11.00;5.32;;;29.50;49.10;;;;;;8256505;28;20054;-81
2022/07/19 18:11:17;;;;;;;10.57;5.20;;;29.30;49.20;;;;;;8248740;28;20083;-82
2022/07/19 18:15:19;;;;;;;9.75;5.22;;;29.10;49.80;;;;;;8253236;28;20049;-82
2022/07/19 18:19:20;;;;;;;9.82;5.40;;;28.90;50.20;;;;;;8248989;28;20027;-81
2022/07/19 18:23:20;;;;;;;8.27;5.25;;;28.70;51.30;;;;;;8258970;28;20080;-82
2022/07/19 18:27:22;;;;;;;9.27;5.82;;;28.50;52.10;;;;;;8259625;28;20026;-82
2022/07/19 18:31:23;;;;;;;9.63;5.45;;;28.30;52.30;;;;;;8265781;28;20623;-82
2022/07/19 18:35:24;;;;;;;8.68;5.18;;;28.00;53.60;;;;;;8261454;28;20022;-82
2022/07/19 18:39:24;;;;;;;10.68;5.85;;;27.80;53.80;;;;;;8259151;28;20038;-82
2022/07/19 18:43:25;;;;;;;9.27;5.22;;;27.50;54.50;;;;;;8257456;28;20032;-82
2022/07/19 18:47:25;;;;;;;6.82;5.15;;;27.10;55.10;;;;;;8251068;28;20502;-82
2022/07/19 18:51:26;;;;;;;11.20;5.47;;;26.90;56.40;;;;;;8248433;28;20022;-83
2022/07/19 18:55:27;;;;;;;10.52;5.70;;;26.60;57.20;;;;;;8246837;28;20035;-82
2022/07/19 18:59:27;;;;;;;7.68;6.07;;;26.30;58.00;;;;;;8268478;28;20030;-83
2022/07/19 19:03:28;;;;;;;13.20;6.35;;;26.00;58.40;;;;;;8249813;28;20030;-83
2022/07/19 19:07:29;;;;;;;9.65;5.95;;;25.70;58.90;;;;;;8250961;28;20402;-83
2022/07/19 19:11:29;;;;;;;10.07;5.53;;;25.50;59.90;;;;;;8261497;28;20027;-81
2022/07/19 19:15:31;;;;;;;8.05;5.65;;;25.30;60.40;;;;;;8265300;28;20040;-81
2022/07/19 19:19:32;;;;;;;8.93;5.65;;;25.00;61.00;;;;;;8266130;28;20054;-82
2022/07/19 19:23:33;;;;;;;8.45;5.68;;;24.60;62.20;;;;;;8270369;28;20475;-80
2022/07/19 19:27:33;;;;;;;10.50;6.32;;;24.40;63.20;;;;;;8267385;28;20016;-81
2022/07/19 19:31:34;;;;;;;12.65;6.47;;;24.20;63.70;;;;;;8265495;28;20030;-81
2022/07/19 19:35:35;;;;;;;10.43;5.60;;;23.90;64.20;;;;;;8266671;28;20034;-82
2022/07/19 19:39:35;;;;;;;11.52;6.00;;;23.80;65.90;;;;;;8265876;28;20042;-81
2022/07/19 19:43:36;;;;;;;9.07;5.78;;;23.50;66.90;;;;;;8266616;28;20029;-81
2022/07/19 19:47:36;;;;;;;7.38;5.45;;;23.40;66.30;;;;;;8267767;28;20483;-81
2022/07/19 19:51:38;;;;;;;12.65;6.25;;;23.30;66.80;;;;;;8264823;28;20058;-81
2022/07/19 19:55:38;;;;;;;10.57;5.43;;;23.10;68.20;;;;;;8263302;28;20093;-81
2022/07/19 19:59:39;;;;;;;9.35;5.60;;;23.00;68.40;;;;;;8265056;28;20117;-81
2022/07/19 20:03:40;;;;;;;13.48;5.85;;;22.90;68.50;;;;;;8263564;28;20451;-81
2022/07/19 20:07:42;;;;;;;9.82;6.05;;;22.70;68.90;;;;;;8266135;28;20661;-81
2022/07/19 20:11:42;;;;;;;9.85;5.93;;;22.70;69.40;;;;;;8263674;28;20039;-81
2022/07/19 20:15:43;;;;;;;8.77;5.38;;;22.60;71.10;;;;;;8277024;28;20058;-81
2022/07/19 20:19:43;;;;;;;11.65;6.03;;;22.40;72.00;;;;;;8269729;28;20057;-80
2022/07/19 20:23:44;;;;;;;10.90;5.93;;;22.30;73.00;;;;;;8265882;28;20029;-82
2022/07/19 20:27:45;;;;;;;15.90;5.90;;;22.10;73.00;;;;;;8273744;28;20033;-82
2022/07/19 20:31:45;;;;;;;11.27;5.78;;;22.10;72.90;;;;;;8266212;28;20018;-81
2022/07/19 20:35:46;;;;;;;9.45;5.60;;;22.00;75.00;;;;;;8265081;28;20100;-81
2022/07/19 20:39:46;;;;;;;9.48;5.55;;;21.90;75.60;;;;;;8267629;28;20038;-81
2022/07/19 20:43:47;;;;;;;8.00;5.63;;;21.70;75.50;;;;;;8263427;28;20042;-81
2022/07/19 20:47:47;;;;;;;9.35;6.35;;;21.60;76.00;;;;;;8266191;28;20042;-81
2022/07/19 20:51:49;;;;;;;11.10;5.70;;;21.60;76.30;;;;;;8264464;28;20402;-81
2022/07/19 20:55:50;;;;;;;11.18;5.95;;;21.50;76.80;;;;;;8259864;28;20442;-81
2022/07/19 20:59:50;;;;;;;14.57;5.70;;;21.50;76.50;;;;;;8262932;28;20088;-81
2022/07/19 21:03:51;;;;;;;13.85;6.07;;;21.40;79.20;;;;;;8262506;28;20046;-81
2022/07/19 21:07:53;;;;;;;9.98;5.10;;;21.30;79.30;;;;;;8262810;28;20026;-81
2022/07/19 21:11:53;;;;;;;8.98;5.70;;;21.00;81.10;;;;;;8262596;28;20032;-81
2022/07/19 21:15:54;;;;;;;9.88;5.75;;;21.00;80.60;;;;;;8262455;28;20026;-81
2022/07/19 21:19:54;;;;;;;11.80;5.78;;;21.00;80.90;;;;;;8262228;28;20482;-81
2022/07/19 21:23:55;;;;;;;9.35;5.32;;;20.90;82.10;;;;;;8263608;28;20057;-81
2022/07/19 21:27:55;;;;;;;8.82;5.88;;;20.80;83.70;;;;;;8263423;28;20026;-81
2022/07/19 21:31:56;;;;;;;6.68;4.97;;;20.70;84.60;;;;;;8261797;28;20033;-81
2022/07/19 21:35:57;;;;;;;9.93;5.65;;;20.60;84.00;;;;;;8263296;28;20026;-81
2022/07/19 21:39:57;;;;;;;8.38;5.65;;;20.70;84.00;;;;;;8261266;28;20023;-81
2022/07/19 21:43:58;;;;;;;10.25;5.60;;;20.70;83.00;;;;;;8262950;28;20041;-81
2022/07/19 21:47:58;;;;;;;9.48;6.28;;;20.80;82.90;;;;;;8261872;28;20026;-81
2022/07/19 21:51:59;;;;;;;10.38;6.03;;;20.90;82.70;;;;;;8261431;28;20062;-81
2022/07/19 21:55:59;;;;;;;13.40;5.85;;;20.70;84.00;;;;;;8260214;28;20084;-81
2022/07/19 22:00:02;;;;;;;9.48;5.80;;;20.40;85.20;;;;;;8262180;28;20030;-81
2022/07/19 22:04:03;;;;;;;9.18;5.22;;;20.30;86.10;;;;;;8260600;28;20030;-81
2022/07/19 22:08:04;;;;;;;8.60;5.70;;;20.10;87.80;;;;;;8260997;28;20022;-81
2022/07/19 22:12:05;;;;;;;8.68;5.53;;;19.70;90.80;;;;;;8261785;28;20061;-81
2022/07/19 22:16:06;;;;;;;9.98;5.85;;;19.40;92.20;;;;;;8260531;28;20034;-81
2022/07/19 22:20:07;;;;;;;11.77;5.68;;;19.20;92.90;;;;;;8271113;28;20034;-81
2022/07/19 22:24:08;;;;;;;11.02;5.95;;;19.10;94.10;;;;;;8262091;28;20435;-81
2022/07/19 22:28:09;;;;;;;9.02;5.50;;;18.90;94.50;;;;;;8260578;28;20034;-81
2022/07/19 22:32:09;;;;;;;12.48;6.40;;;18.70;95.70;;;;;;8260894;28;20097;-81
2022/07/19 22:36:10;;;;;;;9.35;5.85;;;18.60;96.50;;;;;;8260838;28;20399;-81
2022/07/19 22:40:11;;;;;;;7.10;5.40;;;18.50;97.60;;;;;;8260606;28;20054;-81
2022/07/19 22:44:12;;;;;;;10.75;6.40;;;18.30;98.70;;;;;;8259623;28;20038;-80
2022/07/19 22:48:12;;;;;;;10.20;5.90;;;18.30;99.40;;;;;;8260093;28;20025;-81